logo tempoitalia

Diretta Meteo Chandler, Stati Uniti (USA)lunedì 31 agosto ore 01:30

Mappa
Sereno 25 °C Sereno 24 Ore: T.min 25 T.max 39
Ponente Sud/Sud-Ovest Km/h 9.3 Punto di rugiada: 16 °C Umidità: 57% Visibilità: 10 Km
Il sole sorge alle: 06:58 Il sole tramonta alle: 19:56
31 Agosto 2026 01:30 tempo osservato: Sereno Sereno 25 57 1014 vento: Nord S/SO 9.3
31 Agosto 2026 01:10 tempo osservato: Sereno Sereno 26 54 1014 vento: Nord S 9.3
31 Agosto 2026 00:50 tempo osservato: Sereno Sereno 26 54 1014 vento: Nord S 9.3
31 Agosto 2026 00:35 tempo osservato: Sereno Sereno 27 50 1014 vento: Nord S 7.4
31 Agosto 2026 00:15 tempo osservato: Sereno Sereno 27 50 1014 vento: Nord S 9.3
30 Agosto 2026 23:55 tempo osservato: Sereno Sereno 28 48 1014 vento: Nord S 9.3
30 Agosto 2026 23:30 tempo osservato: Sereno Sereno 28 48 1014 vento: Nord S 11.1
30 Agosto 2026 23:10 tempo osservato: Sereno Sereno 28 48 1014 vento: Nord S 11.1
30 Agosto 2026 22:50 tempo osservato: Sereno Sereno 29 45 1014 vento: Nord S 14.8
30 Agosto 2026 22:30 tempo osservato: Sereno Sereno 30 42 1014 vento: Nord S 13
30 Agosto 2026 22:10 tempo osservato: Sereno Sereno 30 42 1014 vento: Nord S 13
30 Agosto 2026 21:50 tempo osservato: Sereno Sereno 30 42 1013 vento: Nord S/SE 13
30 Agosto 2026 21:30 tempo osservato: Sereno Sereno 31 40 1013 vento: Nord S/SE 13
30 Agosto 2026 21:10 tempo osservato: Sereno Sereno 31 40 1013 vento: Nord S/SE 13
30 Agosto 2026 20:50 tempo osservato: Sereno Sereno 32 38 1012 vento: Nord S/SE 11.1
30 Agosto 2026 20:30 tempo osservato: Sereno Sereno 32 38 1012 vento: Nord S/SE 13
30 Agosto 2026 20:15 tempo osservato: Sereno Sereno 33 36 1012 vento: Nord S/SE 11.1
30 Agosto 2026 19:55 tempo osservato: Sereno Sereno 33 36 1012 vento: Nord S/SE 11.1
30 Agosto 2026 19:30 tempo osservato: Sereno Sereno 35 32 1011 vento: Nord S/SE 13
30 Agosto 2026 19:10 tempo osservato: Sereno Sereno 36 30 1012 vento: Nord S 13
30 Agosto 2026 18:50 tempo osservato: Sereno Sereno 37 28 1012 vento: Nord S/SE 13
30 Agosto 2026 18:30 tempo osservato: Sereno Sereno 37 27 1012 vento: Nord S/SO 16.7
30 Agosto 2026 18:10 tempo osservato: Sereno Sereno 38 25 1012 vento: Nord S 14.8
30 Agosto 2026 17:50 tempo osservato: Sereno Sereno 38 25 1012 vento: Nord S 18.5
30 Agosto 2026 17:30 tempo osservato: Sereno Sereno 38 25 1012 vento: Nord S 16.7
30 Agosto 2026 17:10 tempo osservato: Sereno Sereno 38 25 1012 vento: Nord S 18.5
30 Agosto 2026 16:50 tempo osservato: Sereno Sereno 39 24 1012 vento: Nord S 14.8
30 Agosto 2026 16:30 tempo osservato: Sereno Sereno 38 25 1012 vento: Nord S/SE 13
30 Agosto 2026 16:10 tempo osservato: Sereno Sereno 38 25 1012 vento: Nord S 18.5
30 Agosto 2026 15:55 tempo osservato: Sereno Sereno 38 24 1012 vento: Nord S/SO 18.5
30 Agosto 2026 15:35 tempo osservato: Sereno Sereno 38 25 1013 vento: Nord S 20.3
30 Agosto 2026 15:10 tempo osservato: Sereno Sereno 39 24 1013 vento: Nord S/SE 13
30 Agosto 2026 14:50 tempo osservato: Sereno Sereno 39 24 1013 vento: Nord S/SO 27.8
30 Agosto 2026 14:30 tempo osservato: Sereno Sereno 38 25 1014 vento: Nord S 22.2
30 Agosto 2026 14:10 tempo osservato: Sereno Sereno 38 25 1014 vento: Nord S 24
30 Agosto 2026 13:50 tempo osservato: Sereno Sereno 38 27 1014 vento: Nord S 22.2
30 Agosto 2026 13:30 tempo osservato: Sereno Sereno 38 29 1014 vento: Nord S 25.9
30 Agosto 2026 13:10 tempo osservato: Sereno Sereno 37 30 1015 vento: Nord S/SO 27.8
30 Agosto 2026 12:50 tempo osservato: Sereno Sereno 37 32 1015 vento: Nord S/SO 20.3
30 Agosto 2026 12:30 tempo osservato: Sereno Sereno 37 32 1015 vento: Nord S 24
30 Agosto 2026 12:10 tempo osservato: Sereno Sereno 37 32 1015 vento: Nord S 24
30 Agosto 2026 11:50 tempo osservato: Sereno Sereno 36 34 1015 vento: Nord S 31.5
30 Agosto 2026 11:35 tempo osservato: Sereno Sereno 36 34 1016 vento: Nord S 27.8
30 Agosto 2026 11:15 tempo osservato: Sereno Sereno 35 39 1016 vento: Nord S 25.9
30 Agosto 2026 10:50 tempo osservato: Sereno Sereno 33 43 1016 vento: Nord S 22.2
30 Agosto 2026 10:30 tempo osservato: Sereno Sereno 33 43 1016 vento: Nord S/SO 22.2
30 Agosto 2026 10:10 tempo osservato: Sereno Sereno 32 46 1016 vento: Nord S/SO 22.2
30 Agosto 2026 09:50 tempo osservato: Sereno Sereno 31 48 1016 vento: Nord S 20.3
30 Agosto 2026 09:30 tempo osservato: Sereno Sereno 29 51 1016 vento: Nord S 20.3
30 Agosto 2026 09:10 tempo osservato: Sereno Sereno 29 51 1016 vento: Nord S 18.5
30 Agosto 2026 08:50 tempo osservato: Sereno Sereno 28 54 1016 vento: Nord S 18.5
30 Agosto 2026 08:30 tempo osservato: Sereno Sereno 27 57 1016 vento: Nord S 14.8
30 Agosto 2026 08:10 tempo osservato: Sereno Sereno 26 57 1016 vento: Nord S 16.7
30 Agosto 2026 07:50 tempo osservato: Sereno Sereno 26 57 1016 vento: Nord S 14.8
30 Agosto 2026 07:30 tempo osservato: Sereno Sereno 25 61 1016 vento: Nord S 13
30 Agosto 2026 07:15 tempo osservato: Sereno Sereno 25 61 1016 vento: Nord S 16.7
30 Agosto 2026 06:55 tempo osservato: Sereno Sereno 26 57 1015 vento: Nord S 18.5
30 Agosto 2026 06:30 tempo osservato: Sereno Sereno 26 57 1015 vento: Nord S 14.8
30 Agosto 2026 06:10 tempo osservato: Sereno Sereno 26 57 1015 vento: Nord S 14.8
30 Agosto 2026 05:50 tempo osservato: Sereno Sereno 26 54 1015 vento: Nord S 14.8
30 Agosto 2026 05:30 tempo osservato: Sereno Sereno 26 54 1015 vento: Nord S 16.7
30 Agosto 2026 05:10 tempo osservato: Sereno Sereno 26 54 1015 vento: Nord S 18.5
30 Agosto 2026 04:50 tempo osservato: Sereno Sereno 26 54 1015 vento: Nord S 18.5
30 Agosto 2026 04:30 tempo osservato: Sereno Sereno 27 50 1015 vento: Nord S 16.7
30 Agosto 2026 04:10 tempo osservato: Sereno Sereno 27 50 1015 vento: Nord S/SE 18.5
30 Agosto 2026 03:50 tempo osservato: Sereno Sereno 27 50 1015 vento: Nord S/SE 18.5
30 Agosto 2026 03:30 tempo osservato: Sereno Sereno 27 50 1015 vento: Nord S 16.7
30 Agosto 2026 03:10 tempo osservato: Sereno Sereno 27 50 1014 vento: Nord S 20.3
30 Agosto 2026 02:50 tempo osservato: Sereno Sereno 28 48 1014 vento: Nord S 18.5
30 Agosto 2026 02:30 tempo osservato: Sereno Sereno 28 48 1015 vento: Nord S 22.2
30 Agosto 2026 02:10 tempo osservato: Sereno Sereno 28 48 1015 vento: Nord S 20.3
30 Agosto 2026 01:50 tempo osservato: Sereno Sereno 28 48 1015 vento: Nord S/SE 20.3